sensor_id;sensor_type;location;lat;lon;timestamp;P1;durP1;ratioP1;P2;durP2;ratioP2
72575;SDS011;60613;48.658;2.328;2023-10-09T06:02:38;6.27;;;2.10;;
72575;SDS011;60613;48.658;2.328;2023-10-09T06:05:24;6.18;;;2.33;;
72575;SDS011;60613;48.658;2.328;2023-10-09T06:08:27;5.47;;;2.03;;
72575;SDS011;60613;48.658;2.328;2023-10-09T06:11:12;5.95;;;2.20;;
72575;SDS011;60613;48.658;2.328;2023-10-09T06:13:57;6.78;;;2.33;;
72575;SDS011;60613;48.658;2.328;2023-10-09T06:16:32;9.00;;;2.40;;
72575;SDS011;60613;48.658;2.328;2023-10-09T06:19:17;6.40;;;2.38;;
72575;SDS011;60613;48.658;2.328;2023-10-09T06:21:52;5.43;;;2.22;;
72575;SDS011;60613;48.658;2.328;2023-10-09T06:24:36;6.20;;;2.30;;
72575;SDS011;60613;48.658;2.328;2023-10-09T06:27:18;8.18;;;2.38;;
72575;SDS011;60613;48.658;2.328;2023-10-09T06:29:57;6.17;;;2.27;;
72575;SDS011;60613;48.658;2.328;2023-10-09T06:32:39;6.88;;;2.30;;
72575;SDS011;60613;48.658;2.328;2023-10-09T06:35:15;6.18;;;2.38;;
72575;SDS011;60613;48.658;2.328;2023-10-09T06:37:43;8.68;;;2.70;;
72575;SDS011;60613;48.658;2.328;2023-10-09T06:43:05;5.67;;;2.13;;
72575;SDS011;60613;48.658;2.328;2023-10-09T06:45:35;6.43;;;2.10;;
72575;SDS011;60613;48.658;2.328;2023-10-09T06:48:10;6.53;;;2.28;;
72575;SDS011;60613;48.658;2.328;2023-10-09T06:51:01;7.00;;;2.00;;
72575;SDS011;60613;48.658;2.328;2023-10-09T06:53:46;7.15;;;2.28;;
72575;SDS011;60613;48.658;2.328;2023-10-09T06:56:21;7.77;;;2.20;;
72575;SDS011;60613;48.658;2.328;2023-10-09T07:01:29;5.90;;;2.10;;
72575;SDS011;60613;48.658;2.328;2023-10-09T07:04:03;6.63;;;2.25;;
72575;SDS011;60613;48.658;2.328;2023-10-09T07:06:43;5.50;;;2.08;;
72575;SDS011;60613;48.658;2.328;2023-10-09T07:09:10;7.07;;;2.37;;
72575;SDS011;60613;48.658;2.328;2023-10-09T07:11:36;8.38;;;2.28;;
72575;SDS011;60613;48.658;2.328;2023-10-09T07:14:12;7.15;;;2.20;;
72575;SDS011;60613;48.658;2.328;2023-10-09T08:01:25;8.43;;;2.45;;
72575;SDS011;60613;48.658;2.328;2023-10-09T08:04:00;9.18;;;2.67;;
72575;SDS011;60613;48.658;2.328;2023-10-09T08:06:30;12.38;;;2.45;;
72575;SDS011;60613;48.658;2.328;2023-10-09T08:27:20;10.15;;;2.80;;
72575;SDS011;60613;48.658;2.328;2023-10-09T08:30:11;12.50;;;3.17;;
72575;SDS011;60613;48.658;2.328;2023-10-09T08:32:37;14.50;;;3.13;;
72575;SDS011;60613;48.658;2.328;2023-10-09T08:35:08;13.47;;;3.43;;
72575;SDS011;60613;48.658;2.328;2023-10-09T08:37:53;12.60;;;3.22;;
72575;SDS011;60613;48.658;2.328;2023-10-09T08:40:19;12.68;;;3.45;;
72575;SDS011;60613;48.658;2.328;2023-10-09T08:42:47;13.27;;;2.90;;
72575;SDS011;60613;48.658;2.328;2023-10-09T08:45:21;9.63;;;3.10;;
72575;SDS011;60613;48.658;2.328;2023-10-09T08:47:49;11.35;;;3.17;;
72575;SDS011;60613;48.658;2.328;2023-10-09T08:50:19;12.35;;;3.30;;
72575;SDS011;60613;48.658;2.328;2023-10-09T08:52:46;11.85;;;3.75;;
72575;SDS011;60613;48.658;2.328;2023-10-09T08:55:14;14.38;;;3.85;;
72575;SDS011;60613;48.658;2.328;2023-10-09T08:57:42;13.70;;;3.73;;
72575;SDS011;60613;48.658;2.328;2023-10-09T09:00:16;12.45;;;3.80;;
72575;SDS011;60613;48.658;2.328;2023-10-09T09:02:47;11.65;;;3.80;;
72575;SDS011;60613;48.658;2.328;2023-10-09T09:05:21;12.57;;;4.10;;
72575;SDS011;60613;48.658;2.328;2023-10-09T09:07:49;13.15;;;4.10;;
72575;SDS011;60613;48.658;2.328;2023-10-09T09:10:14;10.10;;;3.30;;
72575;SDS011;60613;48.658;2.328;2023-10-09T09:12:46;19.13;;;4.75;;
72575;SDS011;60613;48.658;2.328;2023-10-09T09:15:15;16.08;;;4.80;;
72575;SDS011;60613;48.658;2.328;2023-10-09T09:17:46;15.77;;;4.88;;
72575;SDS011;60613;48.658;2.328;2023-10-09T09:20:26;13.47;;;4.50;;
72575;SDS011;60613;48.658;2.328;2023-10-09T09:23:10;12.57;;;4.00;;
72575;SDS011;60613;48.658;2.328;2023-10-09T09:28:11;16.25;;;4.15;;
72575;SDS011;60613;48.658;2.328;2023-10-09T09:30:38;15.70;;;4.80;;
72575;SDS011;60613;48.658;2.328;2023-10-09T09:33:39;13.83;;;4.37;;
72575;SDS011;60613;48.658;2.328;2023-10-09T09:36:05;15.27;;;4.28;;
72575;SDS011;60613;48.658;2.328;2023-10-09T09:38:32;16.02;;;4.10;;
72575;SDS011;60613;48.658;2.328;2023-10-09T09:41:15;19.70;;;3.60;;
72575;SDS011;60613;48.658;2.328;2023-10-09T09:43:58;15.05;;;3.70;;
72575;SDS011;60613;48.658;2.328;2023-10-09T09:46:33;18.07;;;3.87;;
72575;SDS011;60613;48.658;2.328;2023-10-09T09:49:03;13.13;;;3.50;;
72575;SDS011;60613;48.658;2.328;2023-10-09T09:51:50;19.67;;;3.65;;
72575;SDS011;60613;48.658;2.328;2023-10-09T09:54:16;12.40;;;3.70;;
72575;SDS011;60613;48.658;2.328;2023-10-09T09:56:45;12.70;;;3.72;;
72575;SDS011;60613;48.658;2.328;2023-10-09T09:59:15;12.02;;;3.50;;
72575;SDS011;60613;48.658;2.328;2023-10-09T10:01:47;10.85;;;3.33;;
72575;SDS011;60613;48.658;2.328;2023-10-09T10:04:22;11.23;;;3.33;;
72575;SDS011;60613;48.658;2.328;2023-10-09T10:06:52;10.25;;;3.20;;
72575;SDS011;60613;48.658;2.328;2023-10-09T10:12:04;13.00;;;3.63;;
72575;SDS011;60613;48.658;2.328;2023-10-09T10:17:24;10.17;;;3.20;;
72575;SDS011;60613;48.658;2.328;2023-10-09T10:20:08;14.07;;;3.63;;
72575;SDS011;60613;48.658;2.328;2023-10-09T10:22:39;10.10;;;3.22;;
72575;SDS011;60613;48.658;2.328;2023-10-09T10:25:10;13.27;;;3.80;;
72575;SDS011;60613;48.658;2.328;2023-10-09T10:31:00;9.17;;;3.40;;
72575;SDS011;60613;48.658;2.328;2023-10-09T10:36:23;11.45;;;3.88;;
72575;SDS011;60613;48.658;2.328;2023-10-09T10:38:59;9.68;;;3.15;;
72575;SDS011;60613;48.658;2.328;2023-10-09T10:41:29;10.73;;;3.35;;
72575;SDS011;60613;48.658;2.328;2023-10-09T10:44:01;9.80;;;2.97;;
72575;SDS011;60613;48.658;2.328;2023-10-09T10:46:46;10.52;;;3.28;;
72575;SDS011;60613;48.658;2.328;2023-10-09T10:49:16;9.60;;;3.20;;
72575;SDS011;60613;48.658;2.328;2023-10-09T10:51:49;10.57;;;3.28;;
72575;SDS011;60613;48.658;2.328;2023-10-09T10:54:38;10.27;;;3.33;;
72575;SDS011;60613;48.658;2.328;2023-10-09T10:57:12;10.00;;;3.20;;
72575;SDS011;60613;48.658;2.328;2023-10-09T10:59:44;10.57;;;3.33;;
72575;SDS011;60613;48.658;2.328;2023-10-09T11:02:11;9.65;;;3.20;;
72575;SDS011;60613;48.658;2.328;2023-10-09T11:04:37;10.63;;;3.40;;
72575;SDS011;60613;48.658;2.328;2023-10-09T11:07:10;8.00;;;3.00;;
72575;SDS011;60613;48.658;2.328;2023-10-09T11:09:57;9.05;;;2.97;;
72575;SDS011;60613;48.658;2.328;2023-10-09T11:12:29;10.07;;;3.15;;
72575;SDS011;60613;48.658;2.328;2023-10-09T11:15:08;9.88;;;3.30;;
72575;SDS011;60613;48.658;2.328;2023-10-09T11:18:07;9.50;;;2.87;;
72575;SDS011;60613;48.658;2.328;2023-10-09T11:20:37;7.88;;;2.75;;
72575;SDS011;60613;48.658;2.328;2023-10-09T11:23:04;12.18;;;3.25;;
72575;SDS011;60613;48.658;2.328;2023-10-09T11:25:37;11.10;;;2.97;;
72575;SDS011;60613;48.658;2.328;2023-10-09T11:28:21;9.55;;;2.72;;
72575;SDS011;60613;48.658;2.328;2023-10-09T11:31:10;10.37;;;2.50;;
72575;SDS011;60613;48.658;2.328;2023-10-09T11:33:46;10.80;;;2.75;;
72575;SDS011;60613;48.658;2.328;2023-10-09T11:36:19;9.98;;;2.72;;
72575;SDS011;60613;48.658;2.328;2023-10-09T11:38:46;10.20;;;2.78;;
72575;SDS011;60613;48.658;2.328;2023-10-09T11:41:17;9.98;;;2.92;;
72575;SDS011;60613;48.658;2.328;2023-10-09T11:43:48;10.27;;;2.70;;
72575;SDS011;60613;48.658;2.328;2023-10-09T11:46:20;6.47;;;2.08;;
72575;SDS011;60613;48.658;2.328;2023-10-09T11:49:08;12.02;;;2.55;;
72575;SDS011;60613;48.658;2.328;2023-10-09T11:51:46;11.30;;;2.50;;
72575;SDS011;60613;48.658;2.328;2023-10-09T11:54:50;8.15;;;2.60;;
72575;SDS011;60613;48.658;2.328;2023-10-09T11:57:16;7.53;;;2.53;;
72575;SDS011;60613;48.658;2.328;2023-10-09T11:59:42;9.00;;;2.90;;
72575;SDS011;60613;48.658;2.328;2023-10-09T12:02:08;9.07;;;2.90;;
72575;SDS011;60613;48.658;2.328;2023-10-09T12:04:38;9.27;;;2.60;;
72575;SDS011;60613;48.658;2.328;2023-10-09T12:07:07;8.15;;;2.53;;
72575;SDS011;60613;48.658;2.328;2023-10-09T12:09:35;8.05;;;2.47;;
72575;SDS011;60613;48.658;2.328;2023-10-09T12:12:05;8.98;;;2.40;;
72575;SDS011;60613;48.658;2.328;2023-10-09T12:14:32;8.65;;;2.65;;
72575;SDS011;60613;48.658;2.328;2023-10-09T12:16:59;9.23;;;2.90;;
72575;SDS011;60613;48.658;2.328;2023-10-09T12:19:30;8.63;;;2.80;;
72575;SDS011;60613;48.658;2.328;2023-10-09T12:22:00;7.28;;;2.50;;
72575;SDS011;60613;48.658;2.328;2023-10-09T12:24:27;8.05;;;2.20;;
72575;SDS011;60613;48.658;2.328;2023-10-09T12:26:54;7.38;;;2.45;;
72575;SDS011;60613;48.658;2.328;2023-10-09T12:29:20;7.70;;;2.50;;
72575;SDS011;60613;48.658;2.328;2023-10-09T12:31:45;6.93;;;2.30;;
72575;SDS011;60613;48.658;2.328;2023-10-09T12:34:12;8.20;;;2.20;;
72575;SDS011;60613;48.658;2.328;2023-10-09T12:36:45;8.48;;;2.63;;
72575;SDS011;60613;48.658;2.328;2023-10-09T12:39:11;7.28;;;2.50;;
72575;SDS011;60613;48.658;2.328;2023-10-09T12:41:43;8.18;;;2.53;;
72575;SDS011;60613;48.658;2.328;2023-10-09T12:44:09;7.87;;;2.50;;
72575;SDS011;60613;48.658;2.328;2023-10-09T12:46:44;8.90;;;2.53;;
72575;SDS011;60613;48.658;2.328;2023-10-09T12:49:29;8.23;;;2.50;;
72575;SDS011;60613;48.658;2.328;2023-10-09T12:51:55;8.25;;;2.50;;
72575;SDS011;60613;48.658;2.328;2023-10-09T12:54:26;10.00;;;2.53;;
72575;SDS011;60613;48.658;2.328;2023-10-09T12:56:53;7.68;;;2.40;;
72575;SDS011;60613;48.658;2.328;2023-10-09T12:59:23;7.38;;;2.20;;
72575;SDS011;60613;48.658;2.328;2023-10-09T13:01:49;7.97;;;2.53;;
72575;SDS011;60613;48.658;2.328;2023-10-09T13:04:17;7.75;;;2.20;;
72575;SDS011;60613;48.658;2.328;2023-10-09T13:06:47;7.17;;;2.40;;
72575;SDS011;60613;48.658;2.328;2023-10-09T13:09:16;6.25;;;2.10;;
72575;SDS011;60613;48.658;2.328;2023-10-09T13:12:07;7.32;;;2.13;;
72575;SDS011;60613;48.658;2.328;2023-10-09T13:14:34;6.80;;;2.25;;
72575;SDS011;60613;48.658;2.328;2023-10-09T13:17:00;8.35;;;2.40;;
72575;SDS011;60613;48.658;2.328;2023-10-09T13:19:33;6.30;;;2.10;;
72575;SDS011;60613;48.658;2.328;2023-10-09T13:21:59;6.82;;;2.25;;
72575;SDS011;60613;48.658;2.328;2023-10-09T13:24:28;7.85;;;2.53;;
72575;SDS011;60613;48.658;2.328;2023-10-09T13:26:55;7.13;;;2.33;;
72575;SDS011;60613;48.658;2.328;2023-10-09T13:29:23;6.50;;;2.40;;
72575;SDS011;60613;48.658;2.328;2023-10-09T13:31:49;7.88;;;2.25;;
72575;SDS011;60613;48.658;2.328;2023-10-09T13:34:17;7.60;;;2.33;;
72575;SDS011;60613;48.658;2.328;2023-10-09T13:36:43;7.53;;;2.17;;
72575;SDS011;60613;48.658;2.328;2023-10-09T13:39:18;6.13;;;1.92;;
72575;SDS011;60613;48.658;2.328;2023-10-09T13:41:47;6.75;;;2.30;;
72575;SDS011;60613;48.658;2.328;2023-10-09T13:44:14;6.78;;;2.10;;
72575;SDS011;60613;48.658;2.328;2023-10-09T13:46:40;6.70;;;2.15;;
72575;SDS011;60613;48.658;2.328;2023-10-09T13:49:09;7.50;;;2.27;;
72575;SDS011;60613;48.658;2.328;2023-10-09T13:51:42;6.45;;;2.15;;
72575;SDS011;60613;48.658;2.328;2023-10-09T13:54:11;7.47;;;2.30;;
72575;SDS011;60613;48.658;2.328;2023-10-09T13:56:49;6.53;;;2.00;;
72575;SDS011;60613;48.658;2.328;2023-10-09T13:59:18;7.00;;;2.22;;
72575;SDS011;60613;48.658;2.328;2023-10-09T14:01:50;7.23;;;2.20;;
72575;SDS011;60613;48.658;2.328;2023-10-09T14:04:21;6.65;;;2.20;;
72575;SDS011;60613;48.658;2.328;2023-10-09T14:06:48;7.18;;;2.47;;
72575;SDS011;60613;48.658;2.328;2023-10-09T14:09:22;6.95;;;2.10;;
72575;SDS011;60613;48.658;2.328;2023-10-09T14:12:03;7.28;;;2.08;;
72575;SDS011;60613;48.658;2.328;2023-10-09T14:14:52;8.27;;;2.40;;
72575;SDS011;60613;48.658;2.328;2023-10-09T14:17:21;7.03;;;2.20;;
72575;SDS011;60613;48.658;2.328;2023-10-09T14:19:53;7.13;;;2.40;;
72575;SDS011;60613;48.658;2.328;2023-10-09T14:22:20;6.43;;;2.00;;
72575;SDS011;60613;48.658;2.328;2023-10-09T14:24:51;6.57;;;2.00;;
72575;SDS011;60613;48.658;2.328;2023-10-09T14:27:21;7.90;;;2.00;;
72575;SDS011;60613;48.658;2.328;2023-10-09T14:29:51;6.72;;;2.10;;
72575;SDS011;60613;48.658;2.328;2023-10-09T14:32:21;5.88;;;1.90;;
72575;SDS011;60613;48.658;2.328;2023-10-09T14:34:53;7.05;;;2.20;;
72575;SDS011;60613;48.658;2.328;2023-10-09T14:37:20;6.60;;;2.20;;
72575;SDS011;60613;48.658;2.328;2023-10-09T14:39:46;5.63;;;1.80;;
72575;SDS011;60613;48.658;2.328;2023-10-09T14:42:16;7.65;;;2.28;;
72575;SDS011;60613;48.658;2.328;2023-10-09T14:44:45;7.13;;;2.17;;
72575;SDS011;60613;48.658;2.328;2023-10-09T14:47:11;6.93;;;2.40;;
72575;SDS011;60613;48.658;2.328;2023-10-09T14:49:39;7.47;;;2.20;;
72575;SDS011;60613;48.658;2.328;2023-10-09T14:52:12;6.80;;;2.45;;
72575;SDS011;60613;48.658;2.328;2023-10-09T14:54:41;6.55;;;2.20;;
72575;SDS011;60613;48.658;2.328;2023-10-09T14:57:09;7.25;;;2.20;;
72575;SDS011;60613;48.658;2.328;2023-10-09T14:59:36;7.07;;;2.07;;
72575;SDS011;60613;48.658;2.328;2023-10-09T15:02:02;6.15;;;2.10;;
72575;SDS011;60613;48.658;2.328;2023-10-09T15:04:30;7.32;;;2.28;;
72575;SDS011;60613;48.658;2.328;2023-10-09T15:06:56;6.75;;;2.10;;
72575;SDS011;60613;48.658;2.328;2023-10-09T15:09:22;6.80;;;1.90;;
72575;SDS011;60613;48.658;2.328;2023-10-09T15:11:48;6.68;;;2.20;;
72575;SDS011;60613;48.658;2.328;2023-10-09T15:14:15;6.93;;;2.00;;
72575;SDS011;60613;48.658;2.328;2023-10-09T15:16:43;6.10;;;2.03;;
72575;SDS011;60613;48.658;2.328;2023-10-09T15:19:09;7.87;;;2.17;;
72575;SDS011;60613;48.658;2.328;2023-10-09T15:21:38;7.93;;;2.20;;
72575;SDS011;60613;48.658;2.328;2023-10-09T15:24:12;7.30;;;2.00;;
72575;SDS011;60613;48.658;2.328;2023-10-09T15:26:41;8.48;;;2.25;;
72575;SDS011;60613;48.658;2.328;2023-10-09T15:29:07;6.60;;;1.93;;
72575;SDS011;60613;48.658;2.328;2023-10-09T15:31:34;9.88;;;2.30;;
72575;SDS011;60613;48.658;2.328;2023-10-09T15:34:00;7.45;;;2.20;;
72575;SDS011;60613;48.658;2.328;2023-10-09T15:36:27;9.35;;;2.50;;
72575;SDS011;60613;48.658;2.328;2023-10-09T15:38:56;10.93;;;2.30;;
72575;SDS011;60613;48.658;2.328;2023-10-09T15:41:24;8.63;;;2.23;;
72575;SDS011;60613;48.658;2.328;2023-10-09T15:43:56;8.88;;;2.38;;
72575;SDS011;60613;48.658;2.328;2023-10-09T15:46:23;8.07;;;2.10;;
72575;SDS011;60613;48.658;2.328;2023-10-09T15:48:51;8.65;;;2.42;;
72575;SDS011;60613;48.658;2.328;2023-10-09T15:51:18;8.93;;;2.30;;
72575;SDS011;60613;48.658;2.328;2023-10-09T15:53:44;7.83;;;2.33;;
72575;SDS011;60613;48.658;2.328;2023-10-09T15:56:11;9.57;;;2.40;;
72575;SDS011;60613;48.658;2.328;2023-10-09T15:58:41;7.80;;;2.40;;
72575;SDS011;60613;48.658;2.328;2023-10-09T16:01:15;9.35;;;2.58;;
72575;SDS011;60613;48.658;2.328;2023-10-09T16:03:45;7.72;;;2.60;;
72575;SDS011;60613;48.658;2.328;2023-10-09T16:06:15;10.20;;;2.90;;
72575;SDS011;60613;48.658;2.328;2023-10-09T16:08:43;8.18;;;2.30;;
72575;SDS011;60613;48.658;2.328;2023-10-09T16:11:10;7.35;;;2.42;;
72575;SDS011;60613;48.658;2.328;2023-10-09T16:13:37;9.25;;;2.88;;
72575;SDS011;60613;48.658;2.328;2023-10-09T16:16:04;9.90;;;2.70;;
72575;SDS011;60613;48.658;2.328;2023-10-09T16:18:33;10.27;;;2.77;;
72575;SDS011;60613;48.658;2.328;2023-10-09T16:20:59;9.43;;;2.60;;
72575;SDS011;60613;48.658;2.328;2023-10-09T16:23:29;8.07;;;2.75;;
72575;SDS011;60613;48.658;2.328;2023-10-09T16:25:57;7.80;;;2.33;;
72575;SDS011;60613;48.658;2.328;2023-10-09T16:28:25;10.85;;;2.67;;
72575;SDS011;60613;48.658;2.328;2023-10-09T16:30:52;8.50;;;2.93;;
72575;SDS011;60613;48.658;2.328;2023-10-09T16:33:18;11.82;;;3.00;;
72575;SDS011;60613;48.658;2.328;2023-10-09T16:35:44;9.18;;;3.13;;
72575;SDS011;60613;48.658;2.328;2023-10-09T16:38:12;13.18;;;2.90;;
72575;SDS011;60613;48.658;2.328;2023-10-09T16:40:38;9.68;;;3.35;;
72575;SDS011;60613;48.658;2.328;2023-10-09T16:43:04;11.70;;;3.33;;
72575;SDS011;60613;48.658;2.328;2023-10-09T16:45:31;8.35;;;2.72;;
72575;SDS011;60613;48.658;2.328;2023-10-09T16:48:00;8.25;;;2.97;;
72575;SDS011;60613;48.658;2.328;2023-10-09T16:50:30;10.30;;;3.13;;
72575;SDS011;60613;48.658;2.328;2023-10-09T16:52:56;10.18;;;3.10;;
72575;SDS011;60613;48.658;2.328;2023-10-09T16:55:23;9.63;;;3.00;;
72575;SDS011;60613;48.658;2.328;2023-10-09T16:57:52;8.40;;;2.65;;
72575;SDS011;60613;48.658;2.328;2023-10-09T17:00:18;10.65;;;3.10;;
72575;SDS011;60613;48.658;2.328;2023-10-09T17:03:00;9.27;;;3.08;;
72575;SDS011;60613;48.658;2.328;2023-10-09T17:05:32;9.87;;;3.07;;
72575;SDS011;60613;48.658;2.328;2023-10-09T17:08:08;7.90;;;2.70;;
72575;SDS011;60613;48.658;2.328;2023-10-09T17:10:36;8.55;;;2.70;;
72575;SDS011;60613;48.658;2.328;2023-10-09T17:13:10;10.02;;;2.80;;
72575;SDS011;60613;48.658;2.328;2023-10-09T17:15:36;8.77;;;2.92;;
72575;SDS011;60613;48.658;2.328;2023-10-09T17:18:02;8.23;;;2.80;;
72575;SDS011;60613;48.658;2.328;2023-10-09T17:20:28;8.50;;;2.78;;
72575;SDS011;60613;48.658;2.328;2023-10-09T17:22:55;8.98;;;3.08;;
72575;SDS011;60613;48.658;2.328;2023-10-09T17:25:27;8.75;;;2.80;;
72575;SDS011;60613;48.658;2.328;2023-10-09T17:27:56;10.95;;;2.80;;
72575;SDS011;60613;48.658;2.328;2023-10-09T17:30:25;8.90;;;2.70;;
72575;SDS011;60613;48.658;2.328;2023-10-09T17:32:52;8.35;;;2.70;;
72575;SDS011;60613;48.658;2.328;2023-10-09T17:35:19;8.90;;;2.75;;
72575;SDS011;60613;48.658;2.328;2023-10-09T17:37:46;8.65;;;2.83;;
72575;SDS011;60613;48.658;2.328;2023-10-09T17:40:11;9.33;;;2.87;;
72575;SDS011;60613;48.658;2.328;2023-10-09T17:42:43;9.38;;;2.55;;
72575;SDS011;60613;48.658;2.328;2023-10-09T17:45:09;9.63;;;2.80;;
72575;SDS011;60613;48.658;2.328;2023-10-09T17:47:35;8.85;;;2.63;;
72575;SDS011;60613;48.658;2.328;2023-10-09T17:50:02;9.33;;;2.70;;
72575;SDS011;60613;48.658;2.328;2023-10-09T17:52:30;8.50;;;2.83;;
72575;SDS011;60613;48.658;2.328;2023-10-09T17:54:58;8.45;;;3.15;;
72575;SDS011;60613;48.658;2.328;2023-10-09T17:57:26;7.03;;;2.80;;
72575;SDS011;60613;48.658;2.328;2023-10-09T17:59:55;7.68;;;2.60;;
72575;SDS011;60613;48.658;2.328;2023-10-09T18:02:21;8.67;;;2.87;;
72575;SDS011;60613;48.658;2.328;2023-10-09T18:04:47;8.77;;;2.60;;
72575;SDS011;60613;48.658;2.328;2023-10-09T18:07:13;8.23;;;2.78;;
72575;SDS011;60613;48.658;2.328;2023-10-09T18:09:43;7.65;;;2.47;;
72575;SDS011;60613;48.658;2.328;2023-10-09T18:12:17;8.27;;;2.60;;
72575;SDS011;60613;48.658;2.328;2023-10-09T18:14:50;7.88;;;2.67;;
72575;SDS011;60613;48.658;2.328;2023-10-09T18:17:20;8.75;;;2.75;;
72575;SDS011;60613;48.658;2.328;2023-10-09T18:19:48;7.88;;;2.65;;
72575;SDS011;60613;48.658;2.328;2023-10-09T18:22:16;7.60;;;2.60;;
72575;SDS011;60613;48.658;2.328;2023-10-09T18:24:42;8.33;;;2.57;;
72575;SDS011;60613;48.658;2.328;2023-10-09T18:27:08;8.48;;;2.80;;
72575;SDS011;60613;48.658;2.328;2023-10-09T18:29:37;8.15;;;2.42;;
72575;SDS011;60613;48.658;2.328;2023-10-09T18:32:03;7.93;;;2.53;;
72575;SDS011;60613;48.658;2.328;2023-10-09T18:34:28;8.03;;;2.57;;
72575;SDS011;60613;48.658;2.328;2023-10-09T18:36:57;7.57;;;2.65;;
72575;SDS011;60613;48.658;2.328;2023-10-09T18:39:23;7.13;;;2.30;;
72575;SDS011;60613;48.658;2.328;2023-10-09T18:41:49;8.87;;;2.80;;
72575;SDS011;60613;48.658;2.328;2023-10-09T18:44:16;8.52;;;2.90;;
72575;SDS011;60613;48.658;2.328;2023-10-09T18:46:44;7.88;;;2.50;;
72575;SDS011;60613;48.658;2.328;2023-10-09T18:49:09;7.17;;;2.50;;
72575;SDS011;60613;48.658;2.328;2023-10-09T18:51:37;7.45;;;2.58;;
72575;SDS011;60613;48.658;2.328;2023-10-09T18:54:02;7.60;;;2.50;;
72575;SDS011;60613;48.658;2.328;2023-10-09T18:56:30;7.13;;;2.40;;
72575;SDS011;60613;48.658;2.328;2023-10-09T18:58:57;7.27;;;2.70;;
